sensor_id;sensor_type;location;lat;lon;timestamp;temperature;humidity
22968;DHT22;11650;48.106;-1.696;2022-09-12T00:00:39;20.00;99.90
22968;DHT22;11650;48.106;-1.696;2022-09-12T00:03:05;20.00;99.90
22968;DHT22;11650;48.106;-1.696;2022-09-12T00:05:31;19.90;99.90
22968;DHT22;11650;48.106;-1.696;2022-09-12T00:07:58;19.90;99.90
22968;DHT22;11650;48.106;-1.696;2022-09-12T00:10:23;20.00;99.90
22968;DHT22;11650;48.106;-1.696;2022-09-12T00:12:50;20.00;99.90
22968;DHT22;11650;48.106;-1.696;2022-09-12T00:15:16;20.00;99.90
22968;DHT22;11650;48.106;-1.696;2022-09-12T00:17:41;19.90;99.90
22968;DHT22;11650;48.106;-1.696;2022-09-12T00:20:08;19.80;99.90
22968;DHT22;11650;48.106;-1.696;2022-09-12T00:22:35;19.80;99.90
22968;DHT22;11650;48.106;-1.696;2022-09-12T00:25:01;19.80;99.90
22968;DHT22;11650;48.106;-1.696;2022-09-12T00:27:27;19.80;99.90
22968;DHT22;11650;48.106;-1.696;2022-09-12T00:29:52;19.80;99.90
22968;DHT22;11650;48.106;-1.696;2022-09-12T00:32:19;19.80;99.90
22968;DHT22;11650;48.106;-1.696;2022-09-12T00:34:44;19.80;99.90
22968;DHT22;11650;48.106;-1.696;2022-09-12T00:37:10;19.80;99.90
22968;DHT22;11650;48.106;-1.696;2022-09-12T00:39:36;19.80;99.90
22968;DHT22;11650;48.106;-1.696;2022-09-12T00:42:01;19.70;99.90
22968;DHT22;11650;48.106;-1.696;2022-09-12T00:47:13;19.70;99.90
22968;DHT22;11650;48.106;-1.696;2022-09-12T00:55:13;19.70;99.90
22968;DHT22;11650;48.106;-1.696;2022-09-12T00:57:59;19.60;99.90
22968;DHT22;11650;48.106;-1.696;2022-09-12T01:00:27;19.60;99.90
22968;DHT22;11650;48.106;-1.696;2022-09-12T01:03:00;19.70;99.90
22968;DHT22;11650;48.106;-1.696;2022-09-12T01:05:27;19.60;99.90
22968;DHT22;11650;48.106;-1.696;2022-09-12T01:07:55;19.60;99.90
22968;DHT22;11650;48.106;-1.696;2022-09-12T01:10:21;19.60;99.90
22968;DHT22;11650;48.106;-1.696;2022-09-12T01:12:48;19.60;99.90
22968;DHT22;11650;48.106;-1.696;2022-09-12T01:15:13;19.50;99.90
22968;DHT22;11650;48.106;-1.696;2022-09-12T01:23:43;19.50;99.90
22968;DHT22;11650;48.106;-1.696;2022-09-12T01:31:52;19.40;99.90
22968;DHT22;11650;48.106;-1.696;2022-09-12T01:42:14;19.30;99.90
22968;DHT22;11650;48.106;-1.696;2022-09-12T01:50:36;19.30;99.90
22968;DHT22;11650;48.106;-1.696;2022-09-12T01:53:25;19.30;99.90
22968;DHT22;11650;48.106;-1.696;2022-09-12T01:56:11;19.20;99.90
22968;DHT22;11650;48.106;-1.696;2022-09-12T02:01:32;19.10;99.90
22968;DHT22;11650;48.106;-1.696;2022-09-12T02:04:05;19.10;99.90
22968;DHT22;11650;48.106;-1.696;2022-09-12T02:06:43;19.10;99.90
22968;DHT22;11650;48.106;-1.696;2022-09-12T02:09:19;19.10;99.90
22968;DHT22;11650;48.106;-1.696;2022-09-12T02:11:46;19.10;99.90
22968;DHT22;11650;48.106;-1.696;2022-09-12T02:14:23;19.00;99.90
22968;DHT22;11650;48.106;-1.696;2022-09-12T02:17:00;19.00;99.90
22968;DHT22;11650;48.106;-1.696;2022-09-12T02:19:33;18.90;99.90
22968;DHT22;11650;48.106;-1.696;2022-09-12T02:22:01;18.90;99.90
22968;DHT22;11650;48.106;-1.696;2022-09-12T02:24:36;18.90;99.90
22968;DHT22;11650;48.106;-1.696;2022-09-12T02:27:32;18.80;99.90
22968;DHT22;11650;48.106;-1.696;2022-09-12T02:29:58;18.80;99.90
22968;DHT22;11650;48.106;-1.696;2022-09-12T02:35:00;18.70;99.90
22968;DHT22;11650;48.106;-1.696;2022-09-12T02:40:14;18.70;99.90
22968;DHT22;11650;48.106;-1.696;2022-09-12T02:42:40;18.70;99.90
22968;DHT22;11650;48.106;-1.696;2022-09-12T02:45:07;18.60;99.90
22968;DHT22;11650;48.106;-1.696;2022-09-12T02:47:41;18.70;99.90
22968;DHT22;11650;48.106;-1.696;2022-09-12T02:50:08;18.50;99.90
22968;DHT22;11650;48.106;-1.696;2022-09-12T02:52:34;18.50;99.90
22968;DHT22;11650;48.106;-1.696;2022-09-12T02:55:02;18.50;99.90
22968;DHT22;11650;48.106;-1.696;2022-09-12T02:57:29;18.50;99.90
22968;DHT22;11650;48.106;-1.696;2022-09-12T02:59:58;18.40;99.90
22968;DHT22;11650;48.106;-1.696;2022-09-12T03:05:46;18.40;99.90
22968;DHT22;11650;48.106;-1.696;2022-09-12T03:11:12;18.40;99.90
22968;DHT22;11650;48.106;-1.696;2022-09-12T03:20:04;18.40;99.90
22968;DHT22;11650;48.106;-1.696;2022-09-12T03:28:04;18.40;99.90
22968;DHT22;11650;48.106;-1.696;2022-09-12T03:30:43;18.40;99.90
22968;DHT22;11650;48.106;-1.696;2022-09-12T03:33:17;18.40;99.90
22968;DHT22;11650;48.106;-1.696;2022-09-12T03:35:43;18.40;99.90
22968;DHT22;11650;48.106;-1.696;2022-09-12T03:38:09;18.40;99.90
22968;DHT22;11650;48.106;-1.696;2022-09-12T03:40:36;18.40;99.90
22968;DHT22;11650;48.106;-1.696;2022-09-12T03:43:03;18.30;99.90
22968;DHT22;11650;48.106;-1.696;2022-09-12T03:45:29;18.30;99.90
22968;DHT22;11650;48.106;-1.696;2022-09-12T03:47:55;18.20;99.90
22968;DHT22;11650;48.106;-1.696;2022-09-12T03:50:21;18.20;99.90
22968;DHT22;11650;48.106;-1.696;2022-09-12T03:52:47;18.30;99.90
22968;DHT22;11650;48.106;-1.696;2022-09-12T03:55:13;18.20;99.90
22968;DHT22;11650;48.106;-1.696;2022-09-12T03:57:38;18.20;99.90
22968;DHT22;11650;48.106;-1.696;2022-09-12T04:00:05;18.20;99.90
22968;DHT22;11650;48.106;-1.696;2022-09-12T04:02:33;18.20;99.90
22968;DHT22;11650;48.106;-1.696;2022-09-12T04:04:59;18.20;99.90
22968;DHT22;11650;48.106;-1.696;2022-09-12T04:07:25;18.20;99.90
22968;DHT22;11650;48.106;-1.696;2022-09-12T04:09:51;18.10;99.90
22968;DHT22;11650;48.106;-1.696;2022-09-12T04:12:18;18.10;99.90
22968;DHT22;11650;48.106;-1.696;2022-09-12T04:14:44;18.00;99.90
22968;DHT22;11650;48.106;-1.696;2022-09-12T04:17:09;18.00;99.90
22968;DHT22;11650;48.106;-1.696;2022-09-12T04:19:35;18.00;99.90
22968;DHT22;11650;48.106;-1.696;2022-09-12T04:22:01;18.00;99.90
22968;DHT22;11650;48.106;-1.696;2022-09-12T04:24:26;17.90;99.90
22968;DHT22;11650;48.106;-1.696;2022-09-12T04:26:52;17.90;99.90
22968;DHT22;11650;48.106;-1.696;2022-09-12T04:29:18;17.90;99.90
22968;DHT22;11650;48.106;-1.696;2022-09-12T04:31:44;17.90;99.90
22968;DHT22;11650;48.106;-1.696;2022-09-12T04:34:09;17.80;99.90
22968;DHT22;11650;48.106;-1.696;2022-09-12T04:36:35;17.80;99.90
22968;DHT22;11650;48.106;-1.696;2022-09-12T04:39:03;17.70;99.90
22968;DHT22;11650;48.106;-1.696;2022-09-12T04:41:34;17.70;99.90
22968;DHT22;11650;48.106;-1.696;2022-09-12T04:44:02;17.70;99.90
22968;DHT22;11650;48.106;-1.696;2022-09-12T04:46:35;17.70;99.90
22968;DHT22;11650;48.106;-1.696;2022-09-12T04:49:02;17.70;99.90
22968;DHT22;11650;48.106;-1.696;2022-09-12T04:51:29;17.70;99.90
22968;DHT22;11650;48.106;-1.696;2022-09-12T04:53:57;17.60;99.90
22968;DHT22;11650;48.106;-1.696;2022-09-12T04:56:24;17.60;99.90
22968;DHT22;11650;48.106;-1.696;2022-09-12T04:58:50;17.60;99.90
22968;DHT22;11650;48.106;-1.696;2022-09-12T05:01:18;17.60;99.90
22968;DHT22;11650;48.106;-1.696;2022-09-12T05:03:45;17.60;99.90
22968;DHT22;11650;48.106;-1.696;2022-09-12T05:06:17;17.60;99.90
22968;DHT22;11650;48.106;-1.696;2022-09-12T05:08:43;17.50;99.90
22968;DHT22;11650;48.106;-1.696;2022-09-12T05:11:12;17.50;99.90
22968;DHT22;11650;48.106;-1.696;2022-09-12T05:13:38;17.50;99.90
22968;DHT22;11650;48.106;-1.696;2022-09-12T05:16:05;17.50;99.90
22968;DHT22;11650;48.106;-1.696;2022-09-12T05:18:33;17.50;99.90
22968;DHT22;11650;48.106;-1.696;2022-09-12T05:20:59;17.50;99.90
22968;DHT22;11650;48.106;-1.696;2022-09-12T05:23:26;17.50;99.90
22968;DHT22;11650;48.106;-1.696;2022-09-12T05:25:53;17.50;99.90
22968;DHT22;11650;48.106;-1.696;2022-09-12T05:28:21;17.50;99.90
22968;DHT22;11650;48.106;-1.696;2022-09-12T05:30:46;17.50;99.90
22968;DHT22;11650;48.106;-1.696;2022-09-12T05:33:13;17.50;99.90
22968;DHT22;11650;48.106;-1.696;2022-09-12T05:35:39;17.50;99.90
22968;DHT22;11650;48.106;-1.696;2022-09-12T05:38:06;17.40;99.90
22968;DHT22;11650;48.106;-1.696;2022-09-12T05:40:33;17.40;99.90
22968;DHT22;11650;48.106;-1.696;2022-09-12T05:42:59;17.40;99.90
22968;DHT22;11650;48.106;-1.696;2022-09-12T05:45:24;17.40;99.90
22968;DHT22;11650;48.106;-1.696;2022-09-12T05:47:51;17.40;99.90
22968;DHT22;11650;48.106;-1.696;2022-09-12T05:50:18;17.40;99.90
22968;DHT22;11650;48.106;-1.696;2022-09-12T05:52:44;17.40;99.90
22968;DHT22;11650;48.106;-1.696;2022-09-12T05:55:10;17.50;99.90
22968;DHT22;11650;48.106;-1.696;2022-09-12T05:57:36;17.40;99.90
22968;DHT22;11650;48.106;-1.696;2022-09-12T06:00:03;17.40;99.90
22968;DHT22;11650;48.106;-1.696;2022-09-12T06:02:29;17.40;99.90
22968;DHT22;11650;48.106;-1.696;2022-09-12T06:04:55;17.40;99.90
22968;DHT22;11650;48.106;-1.696;2022-09-12T06:07:20;17.50;99.90
22968;DHT22;11650;48.106;-1.696;2022-09-12T06:09:46;17.40;99.90
22968;DHT22;11650;48.106;-1.696;2022-09-12T06:12:11;17.50;99.90
22968;DHT22;11650;48.106;-1.696;2022-09-12T06:14:38;17.60;99.90
22968;DHT22;11650;48.106;-1.696;2022-09-12T06:17:03;17.60;99.90
22968;DHT22;11650;48.106;-1.696;2022-09-12T06:19:30;17.60;99.90
22968;DHT22;11650;48.106;-1.696;2022-09-12T06:21:55;17.60;99.90
22968;DHT22;11650;48.106;-1.696;2022-09-12T06:24:21;17.60;99.90
22968;DHT22;11650;48.106;-1.696;2022-09-12T06:26:48;17.60;99.90
22968;DHT22;11650;48.106;-1.696;2022-09-12T06:29:14;17.60;99.90
22968;DHT22;11650;48.106;-1.696;2022-09-12T06:31:41;17.60;99.90
22968;DHT22;11650;48.106;-1.696;2022-09-12T06:34:09;17.70;99.90
22968;DHT22;11650;48.106;-1.696;2022-09-12T06:36:55;17.70;99.90
22968;DHT22;11650;48.106;-1.696;2022-09-12T06:39:22;17.80;99.90
22968;DHT22;11650;48.106;-1.696;2022-09-12T06:41:49;17.90;99.90
22968;DHT22;11650;48.106;-1.696;2022-09-12T06:44:18;18.00;99.90
22968;DHT22;11650;48.106;-1.696;2022-09-12T06:46:43;18.00;99.90
22968;DHT22;11650;48.106;-1.696;2022-09-12T06:49:10;18.00;99.90
22968;DHT22;11650;48.106;-1.696;2022-09-12T06:51:35;18.00;99.90
22968;DHT22;11650;48.106;-1.696;2022-09-12T06:54:02;18.10;99.90
22968;DHT22;11650;48.106;-1.696;2022-09-12T06:56:28;18.20;99.90
22968;DHT22;11650;48.106;-1.696;2022-09-12T06:58:57;18.30;99.90
22968;DHT22;11650;48.106;-1.696;2022-09-12T07:01:26;18.40;99.90
22968;DHT22;11650;48.106;-1.696;2022-09-12T07:03:58;18.40;99.90
22968;DHT22;11650;48.106;-1.696;2022-09-12T07:06:35;18.60;99.90
22968;DHT22;11650;48.106;-1.696;2022-09-12T07:09:03;18.70;99.90
22968;DHT22;11650;48.106;-1.696;2022-09-12T07:11:32;18.70;99.90
22968;DHT22;11650;48.106;-1.696;2022-09-12T07:13:59;18.80;99.90
22968;DHT22;11650;48.106;-1.696;2022-09-12T07:16:26;18.80;99.90
22968;DHT22;11650;48.106;-1.696;2022-09-12T07:18:54;18.80;99.90
22968;DHT22;11650;48.106;-1.696;2022-09-12T07:21:20;18.70;99.90
22968;DHT22;11650;48.106;-1.696;2022-09-12T07:23:45;18.80;99.90
22968;DHT22;11650;48.106;-1.696;2022-09-12T07:26:13;18.90;99.90
22968;DHT22;11650;48.106;-1.696;2022-09-12T07:28:39;18.90;99.90
22968;DHT22;11650;48.106;-1.696;2022-09-12T07:31:10;18.90;99.90
22968;DHT22;11650;48.106;-1.696;2022-09-12T07:33:37;19.00;99.90
22968;DHT22;11650;48.106;-1.696;2022-09-12T07:36:08;19.10;99.90
22968;DHT22;11650;48.106;-1.696;2022-09-12T07:38:36;19.30;99.90
22968;DHT22;11650;48.106;-1.696;2022-09-12T07:41:28;19.30;99.90
22968;DHT22;11650;48.106;-1.696;2022-09-12T07:43:55;19.30;99.90
22968;DHT22;11650;48.106;-1.696;2022-09-12T07:46:22;19.40;99.90
22968;DHT22;11650;48.106;-1.696;2022-09-12T07:48:53;19.50;99.90
22968;DHT22;11650;48.106;-1.696;2022-09-12T07:51:19;19.40;99.90
22968;DHT22;11650;48.106;-1.696;2022-09-12T07:53:46;19.50;99.90
22968;DHT22;11650;48.106;-1.696;2022-09-12T07:56:13;19.70;99.90
22968;DHT22;11650;48.106;-1.696;2022-09-12T07:58:40;19.70;99.90
22968;DHT22;11650;48.106;-1.696;2022-09-12T08:03:35;20.00;99.90
22968;DHT22;11650;48.106;-1.696;2022-09-12T08:06:15;20.00;99.90
22968;DHT22;11650;48.106;-1.696;2022-09-12T08:08:43;19.90;99.90
22968;DHT22;11650;48.106;-1.696;2022-09-12T08:11:10;20.00;99.90
22968;DHT22;11650;48.106;-1.696;2022-09-12T08:13:38;20.20;99.90
22968;DHT22;11650;48.106;-1.696;2022-09-12T08:16:12;20.30;99.90
22968;DHT22;11650;48.106;-1.696;2022-09-12T08:18:38;20.40;99.90
22968;DHT22;11650;48.106;-1.696;2022-09-12T08:21:08;20.50;99.90
22968;DHT22;11650;48.106;-1.696;2022-09-12T08:23:34;20.50;99.90
22968;DHT22;11650;48.106;-1.696;2022-09-12T08:26:02;20.60;99.90
22968;DHT22;11650;48.106;-1.696;2022-09-12T08:28:30;20.70;99.90
22968;DHT22;11650;48.106;-1.696;2022-09-12T08:31:03;20.80;99.90
22968;DHT22;11650;48.106;-1.696;2022-09-12T08:33:30;20.90;99.90
22968;DHT22;11650;48.106;-1.696;2022-09-12T08:36:14;21.00;99.90
22968;DHT22;11650;48.106;-1.696;2022-09-12T08:38:42;21.10;99.90
22968;DHT22;11650;48.106;-1.696;2022-09-12T08:41:10;21.20;99.90
22968;DHT22;11650;48.106;-1.696;2022-09-12T08:52:17;21.60;99.90
22968;DHT22;11650;48.106;-1.696;2022-09-12T08:54:43;21.70;99.90
22968;DHT22;11650;48.106;-1.696;2022-09-12T08:57:14;21.80;99.90
22968;DHT22;11650;48.106;-1.696;2022-09-12T08:59:44;21.90;99.90
22968;DHT22;11650;48.106;-1.696;2022-09-12T09:04:54;22.10;99.90
22968;DHT22;11650;48.106;-1.696;2022-09-12T09:07:43;22.20;99.90
22968;DHT22;11650;48.106;-1.696;2022-09-12T09:18:30;22.70;99.90
22968;DHT22;11650;48.106;-1.696;2022-09-12T09:23:39;22.80;99.90
22968;DHT22;11650;48.106;-1.696;2022-09-12T09:26:14;22.80;99.90
22968;DHT22;11650;48.106;-1.696;2022-09-12T09:31:18;23.00;99.90
22968;DHT22;11650;48.106;-1.696;2022-09-12T09:33:47;23.20;99.90
22968;DHT22;11650;48.106;-1.696;2022-09-12T09:38:47;23.30;99.90
22968;DHT22;11650;48.106;-1.696;2022-09-12T09:44:14;23.60;99.90
22968;DHT22;11650;48.106;-1.696;2022-09-12T09:46:40;23.70;99.90
22968;DHT22;11650;48.106;-1.696;2022-09-12T09:49:06;23.80;99.90
22968;DHT22;11650;48.106;-1.696;2022-09-12T09:51:35;23.90;99.90
22968;DHT22;11650;48.106;-1.696;2022-09-12T09:56:42;24.20;99.90
22968;DHT22;11650;48.106;-1.696;2022-09-12T09:59:15;24.30;99.90
22968;DHT22;11650;48.106;-1.696;2022-09-12T10:01:59;24.50;99.90
22968;DHT22;11650;48.106;-1.696;2022-09-12T10:04:33;24.50;99.90
22968;DHT22;11650;48.106;-1.696;2022-09-12T10:07:01;24.50;99.90
22968;DHT22;11650;48.106;-1.696;2022-09-12T10:09:30;24.80;99.90
22968;DHT22;11650;48.106;-1.696;2022-09-12T10:11:58;25.00;99.90
22968;DHT22;11650;48.106;-1.696;2022-09-12T10:14:37;24.80;99.90
22968;DHT22;11650;48.106;-1.696;2022-09-12T10:17:26;25.00;99.90
22968;DHT22;11650;48.106;-1.696;2022-09-12T10:19:54;25.10;99.90
22968;DHT22;11650;48.106;-1.696;2022-09-12T10:22:28;25.20;99.90
22968;DHT22;11650;48.106;-1.696;2022-09-12T10:24:57;25.20;99.90
22968;DHT22;11650;48.106;-1.696;2022-09-12T10:27:27;25.20;99.90
22968;DHT22;11650;48.106;-1.696;2022-09-12T10:30:21;25.40;99.90
22968;DHT22;11650;48.106;-1.696;2022-09-12T10:32:50;25.50;99.90
22968;DHT22;11650;48.106;-1.696;2022-09-12T10:35:21;25.50;99.90
22968;DHT22;11650;48.106;-1.696;2022-09-12T10:38:03;25.70;99.90
22968;DHT22;11650;48.106;-1.696;2022-09-12T10:40:38;25.70;99.90
22968;DHT22;11650;48.106;-1.696;2022-09-12T10:43:16;25.90;99.90
22968;DHT22;11650;48.106;-1.696;2022-09-12T10:45:42;25.90;99.90
22968;DHT22;11650;48.106;-1.696;2022-09-12T10:50:46;26.40;99.90
22968;DHT22;11650;48.106;-1.696;2022-09-12T10:53:21;26.60;99.90
22968;DHT22;11650;48.106;-1.696;2022-09-12T11:01:13;26.50;99.90
22968;DHT22;11650;48.106;-1.696;2022-09-12T11:12:31;27.10;99.90
22968;DHT22;11650;48.106;-1.696;2022-09-12T11:33:42;27.70;99.90
22968;DHT22;11650;48.106;-1.696;2022-09-12T11:36:21;27.70;99.90
22968;DHT22;11650;48.106;-1.696;2022-09-12T11:38:57;27.80;99.90
22968;DHT22;11650;48.106;-1.696;2022-09-12T11:41:33;27.90;99.90
22968;DHT22;11650;48.106;-1.696;2022-09-12T11:44:23;27.90;99.90
22968;DHT22;11650;48.106;-1.696;2022-09-12T11:46:50;27.90;99.90
22968;DHT22;11650;48.106;-1.696;2022-09-12T11:49:28;28.20;99.90
22968;DHT22;11650;48.106;-1.696;2022-09-12T11:52:21;28.40;99.90
22968;DHT22;11650;48.106;-1.696;2022-09-12T11:57:42;28.50;99.90
22968;DHT22;11650;48.106;-1.696;2022-09-12T12:00:18;28.90;99.90
22968;DHT22;11650;48.106;-1.696;2022-09-12T12:03:02;29.00;99.90
22968;DHT22;11650;48.106;-1.696;2022-09-12T12:05:50;29.20;99.90
22968;DHT22;11650;48.106;-1.696;2022-09-12T12:08:22;29.40;99.90
22968;DHT22;11650;48.106;-1.696;2022-09-12T12:10:55;29.60;99.90
22968;DHT22;11650;48.106;-1.696;2022-09-12T12:13:32;29.40;99.90
22968;DHT22;11650;48.106;-1.696;2022-09-12T12:16:17;29.50;99.90
22968;DHT22;11650;48.106;-1.696;2022-09-12T12:18:54;29.60;99.90
22968;DHT22;11650;48.106;-1.696;2022-09-12T12:21:34;29.80;99.90
22968;DHT22;11650;48.106;-1.696;2022-09-12T12:29:08;30.30;99.90
22968;DHT22;11650;48.106;-1.696;2022-09-12T12:36:56;30.80;99.90
22968;DHT22;11650;48.106;-1.696;2022-09-12T12:42:01;31.20;99.90
22968;DHT22;11650;48.106;-1.696;2022-09-12T12:47:20;31.40;99.90
22968;DHT22;11650;48.106;-1.696;2022-09-12T12:53:04;31.20;99.90
22968;DHT22;11650;48.106;-1.696;2022-09-12T12:55:37;31.10;99.90
22968;DHT22;11650;48.106;-1.696;2022-09-12T13:00:45;31.90;99.90
22968;DHT22;11650;48.106;-1.696;2022-09-12T13:03:27;32.30;99.90
22968;DHT22;11650;48.106;-1.696;2022-09-12T13:06:00;33.00;99.90
22968;DHT22;11650;48.106;-1.696;2022-09-12T13:08:32;34.10;99.90
22968;DHT22;11650;48.106;-1.696;2022-09-12T13:11:15;34.80;99.90
22968;DHT22;11650;48.106;-1.696;2022-09-12T13:14:03;34.80;99.90
22968;DHT22;11650;48.106;-1.696;2022-09-12T13:16:35;34.30;99.90
22968;DHT22;11650;48.106;-1.696;2022-09-12T13:19:04;34.10;99.90
22968;DHT22;11650;48.106;-1.696;2022-09-12T13:21:31;33.50;99.90
22968;DHT22;11650;48.106;-1.696;2022-09-12T13:24:11;33.20;99.90
22968;DHT22;11650;48.106;-1.696;2022-09-12T13:26:42;34.00;99.90
22968;DHT22;11650;48.106;-1.696;2022-09-12T13:29:27;34.70;99.90
22968;DHT22;11650;48.106;-1.696;2022-09-12T13:32:02;35.30;99.90
22968;DHT22;11650;48.106;-1.696;2022-09-12T13:34:39;35.50;99.30
22968;DHT22;11650;48.106;-1.696;2022-09-12T13:37:23;35.40;98.90
22968;DHT22;11650;48.106;-1.696;2022-09-12T13:40:38;35.70;98.60
22968;DHT22;11650;48.106;-1.696;2022-09-12T13:43:12;34.80;98.90
22968;DHT22;11650;48.106;-1.696;2022-09-12T13:45:40;35.80;98.80
22968;DHT22;11650;48.106;-1.696;2022-09-12T13:48:14;35.20;98.80
22968;DHT22;11650;48.106;-1.696;2022-09-12T13:50:53;34.50;99.00
22968;DHT22;11650;48.106;-1.696;2022-09-12T13:53:22;35.00;98.70
22968;DHT22;11650;48.106;-1.696;2022-09-12T13:55:52;35.20;98.70
22968;DHT22;11650;48.106;-1.696;2022-09-12T14:01:09;34.60;98.90
22968;DHT22;11650;48.106;-1.696;2022-09-12T14:03:54;34.90;98.80
22968;DHT22;11650;48.106;-1.696;2022-09-12T14:06:47;35.40;98.50
22968;DHT22;11650;48.106;-1.696;2022-09-12T14:09:20;35.40;98.10
22968;DHT22;11650;48.106;-1.696;2022-09-12T14:11:47;35.60;97.50
22968;DHT22;11650;48.106;-1.696;2022-09-12T14:16:53;34.70;97.70
22968;DHT22;11650;48.106;-1.696;2022-09-12T14:19:21;34.70;98.20
22968;DHT22;11650;48.106;-1.696;2022-09-12T14:21:47;34.90;97.90
22968;DHT22;11650;48.106;-1.696;2022-09-12T14:24:15;34.70;97.80
22968;DHT22;11650;48.106;-1.696;2022-09-12T14:26:42;35.10;97.50
22968;DHT22;11650;48.106;-1.696;2022-09-12T14:29:13;34.90;97.70
22968;DHT22;11650;48.106;-1.696;2022-09-12T14:31:41;34.30;98.00
22968;DHT22;11650;48.106;-1.696;2022-09-12T14:34:12;33.40;98.60
22968;DHT22;11650;48.106;-1.696;2022-09-12T14:36:50;33.00;99.20
22968;DHT22;11650;48.106;-1.696;2022-09-12T14:39:29;32.50;99.90
22968;DHT22;11650;48.106;-1.696;2022-09-12T14:42:05;32.40;99.80
22968;DHT22;11650;48.106;-1.696;2022-09-12T14:44:32;32.20;99.90
22968;DHT22;11650;48.106;-1.696;2022-09-12T14:47:14;32.40;99.90
22968;DHT22;11650;48.106;-1.696;2022-09-12T14:49:43;33.70;99.40
22968;DHT22;11650;48.106;-1.696;2022-09-12T14:54:58;35.00;97.60
22968;DHT22;11650;48.106;-1.696;2022-09-12T14:57:32;33.90;98.40
22968;DHT22;11650;48.106;-1.696;2022-09-12T15:02:40;34.70;98.10
22968;DHT22;11650;48.106;-1.696;2022-09-12T15:10:21;32.70;99.90
22968;DHT22;11650;48.106;-1.696;2022-09-12T15:12:48;32.10;99.90
22968;DHT22;11650;48.106;-1.696;2022-09-12T15:15:16;31.50;99.90
22968;DHT22;11650;48.106;-1.696;2022-09-12T15:17:42;31.40;99.90
22968;DHT22;11650;48.106;-1.696;2022-09-12T15:20:08;31.10;99.90
22968;DHT22;11650;48.106;-1.696;2022-09-12T15:22:36;31.00;99.90
22968;DHT22;11650;48.106;-1.696;2022-09-12T15:25:03;30.90;99.90
22968;DHT22;11650;48.106;-1.696;2022-09-12T15:27:29;30.90;99.90
22968;DHT22;11650;48.106;-1.696;2022-09-12T15:29:55;30.80;99.90
22968;DHT22;11650;48.106;-1.696;2022-09-12T15:32:28;30.60;99.90
22968;DHT22;11650;48.106;-1.696;2022-09-12T15:34:54;30.50;99.90
22968;DHT22;11650;48.106;-1.696;2022-09-12T15:37:22;30.40;99.90
22968;DHT22;11650;48.106;-1.696;2022-09-12T15:39:48;30.40;99.90
22968;DHT22;11650;48.106;-1.696;2022-09-12T15:42:15;30.40;99.90
22968;DHT22;11650;48.106;-1.696;2022-09-12T15:44:42;30.30;99.90
22968;DHT22;11650;48.106;-1.696;2022-09-12T15:47:11;30.30;99.90
22968;DHT22;11650;48.106;-1.696;2022-09-12T15:49:37;30.30;99.90
22968;DHT22;11650;48.106;-1.696;2022-09-12T15:52:03;30.40;99.90
22968;DHT22;11650;48.106;-1.696;2022-09-12T15:54:29;30.40;99.90
22968;DHT22;11650;48.106;-1.696;2022-09-12T15:56:54;30.40;99.90
22968;DHT22;11650;48.106;-1.696;2022-09-12T15:59:20;30.40;99.90
22968;DHT22;11650;48.106;-1.696;2022-09-12T16:01:48;30.40;99.90
22968;DHT22;11650;48.106;-1.696;2022-09-12T16:04:22;30.40;99.90
22968;DHT22;11650;48.106;-1.696;2022-09-12T16:06:49;30.50;99.90
22968;DHT22;11650;48.106;-1.696;2022-09-12T16:09:14;30.40;99.90
22968;DHT22;11650;48.106;-1.696;2022-09-12T16:11:40;30.40;99.90
22968;DHT22;11650;48.106;-1.696;2022-09-12T16:14:06;30.30;99.90
22968;DHT22;11650;48.106;-1.696;2022-09-12T16:16:32;30.10;99.90
22968;DHT22;11650;48.106;-1.696;2022-09-12T16:18:59;30.00;99.90
22968;DHT22;11650;48.106;-1.696;2022-09-12T16:21:25;29.90;99.90
22968;DHT22;11650;48.106;-1.696;2022-09-12T16:23:51;29.70;99.90
22968;DHT22;11650;48.106;-1.696;2022-09-12T16:26:17;29.70;99.90
22968;DHT22;11650;48.106;-1.696;2022-09-12T16:28:43;29.60;99.90
22968;DHT22;11650;48.106;-1.696;2022-09-12T16:31:11;29.40;99.90
22968;DHT22;11650;48.106;-1.696;2022-09-12T16:33:37;29.20;99.90
22968;DHT22;11650;48.106;-1.696;2022-09-12T16:36:06;29.10;99.90
22968;DHT22;11650;48.106;-1.696;2022-09-12T16:38:32;28.90;99.90
22968;DHT22;11650;48.106;-1.696;2022-09-12T16:41:04;28.80;99.90
22968;DHT22;11650;48.106;-1.696;2022-09-12T16:43:31;28.80;99.90
22968;DHT22;11650;48.106;-1.696;2022-09-12T16:46:23;28.80;99.90
22968;DHT22;11650;48.106;-1.696;2022-09-12T16:48:53;28.80;99.90
22968;DHT22;11650;48.106;-1.696;2022-09-12T16:51:24;28.80;99.90
22968;DHT22;11650;48.106;-1.696;2022-09-12T16:53:50;28.80;99.90
22968;DHT22;11650;48.106;-1.696;2022-09-12T16:56:16;28.80;99.90
22968;DHT22;11650;48.106;-1.696;2022-09-12T16:58:43;28.60;99.90
22968;DHT22;11650;48.106;-1.696;2022-09-12T17:01:17;28.40;99.90
22968;DHT22;11650;48.106;-1.696;2022-09-12T17:03:44;28.20;99.90
22968;DHT22;11650;48.106;-1.696;2022-09-12T17:06:12;28.20;99.90
22968;DHT22;11650;48.106;-1.696;2022-09-12T17:08:40;28.20;99.90
22968;DHT22;11650;48.106;-1.696;2022-09-12T17:11:18;28.10;99.90
22968;DHT22;11650;48.106;-1.696;2022-09-12T17:13:48;28.10;99.90
22968;DHT22;11650;48.106;-1.696;2022-09-12T17:16:14;28.00;99.90
22968;DHT22;11650;48.106;-1.696;2022-09-12T17:18:40;27.90;99.90
22968;DHT22;11650;48.106;-1.696;2022-09-12T17:21:07;27.90;99.90
22968;DHT22;11650;48.106;-1.696;2022-09-12T17:23:33;27.90;99.90
22968;DHT22;11650;48.106;-1.696;2022-09-12T17:25:59;28.00;99.90
22968;DHT22;11650;48.106;-1.696;2022-09-12T17:28:25;28.00;99.90
22968;DHT22;11650;48.106;-1.696;2022-09-12T17:30:56;27.90;99.90
22968;DHT22;11650;48.106;-1.696;2022-09-12T17:33:21;27.90;99.90
22968;DHT22;11650;48.106;-1.696;2022-09-12T17:35:47;27.90;99.90
22968;DHT22;11650;48.106;-1.696;2022-09-12T17:38:13;27.70;99.90
22968;DHT22;11650;48.106;-1.696;2022-09-12T17:40:38;27.70;99.90
22968;DHT22;11650;48.106;-1.696;2022-09-12T17:43:04;27.60;99.90
22968;DHT22;11650;48.106;-1.696;2022-09-12T17:45:30;27.60;99.90
22968;DHT22;11650;48.106;-1.696;2022-09-12T17:47:55;27.60;99.90
22968;DHT22;11650;48.106;-1.696;2022-09-12T17:50:21;27.50;99.90
22968;DHT22;11650;48.106;-1.696;2022-09-12T17:52:47;27.50;99.90
22968;DHT22;11650;48.106;-1.696;2022-09-12T17:55:13;27.40;99.90
22968;DHT22;11650;48.106;-1.696;2022-09-12T17:57:40;27.30;99.90
22968;DHT22;11650;48.106;-1.696;2022-09-12T18:00:06;27.40;99.90
22968;DHT22;11650;48.106;-1.696;2022-09-12T18:02:33;27.30;99.90
22968;DHT22;11650;48.106;-1.696;2022-09-12T18:04:58;27.20;99.90
22968;DHT22;11650;48.106;-1.696;2022-09-12T18:07:24;27.20;99.90
22968;DHT22;11650;48.106;-1.696;2022-09-12T18:09:50;27.20;99.90
22968;DHT22;11650;48.106;-1.696;2022-09-12T18:12:16;27.10;99.90
22968;DHT22;11650;48.106;-1.696;2022-09-12T18:14:42;27.10;99.90
22968;DHT22;11650;48.106;-1.696;2022-09-12T18:17:08;27.10;99.90
22968;DHT22;11650;48.106;-1.696;2022-09-12T18:19:36;27.00;99.90
22968;DHT22;11650;48.106;-1.696;2022-09-12T18:22:03;27.00;99.90